Weather observations for the past three days for
Port Lavaca - Calhoun County Airport
Imperial (Metric)
Date Time (cdt) Wind (mph) Vis. (mi.) Weather Sky Cond. Temperature (ºF) Relative Humidity Wind Chill (°F) Heat Index (°F) Pressure Precipitation (in)
Air Dwpt 6 hour altimeter (in) sea level (mb) 1 hr 3 hr 6 hr
Max. Min.
31 01:55 S 3 10.00 Fair CLR 80.1 79.3 98% 87 29.96 0.0
31 01:35 SE 5 10.00 Fair CLR 79.3 78.4 97% 85 29.96 0.0
31 01:15 SE 3 10.00 Fair CLR 80.2 79.2 97% 87 29.97 0.0
31 00:55 SE 5 10.00 Fair CLR 79.3 78.4 88.5 79.3 97% 85 29.96 0.0
31 00:35 SE 5 10.00 Fair CLR 79.7 78.4 96% 86 29.96 0.0
31 00:15 SE 6 10.00 Fair CLR 79.9 78.1 94% 86 29.96 0.0
30 23:55 SE 7 10.00 Fair CLR 79.7 78.1 95% 85 29.95 0.0
30 23:35 SE 6 10.00 Fair CLR 80.1 78.3 94% 86 29.95 0.0
30 23:15 S 6 10.00 Fair CLR 80.4 78.6 94% 88 29.95 0.0
30 22:55 SE 7 10.00 Fair CLR 81.1 78.6 92% 89 29.95 0.0
30 22:35 SE 7 10.00 Fair CLR 81.7 78.8 91% 91 29.94 0.0
30 22:15 SE 7 10.00 Fair CLR 81.5 78.6 91% 90 29.94 0.0
30 21:55 SE 7 10.00 Fair CLR 82.2 78.8 89% 92 29.93 0.0
30 21:35 SE 8 10.00 Fair CLR 82.9 79 88% 94 29.93 0.0
30 21:15 SE 10 10.00 Fair CLR 83.7 79.2 86% 95 29.92 0.0
30 20:55 SE 12 10.00 Fair CLR 84 79.3 86% 96 29.91 0.0
30 20:35 SE 10 9.00 Fair CLR 84.2 79.2 85% 97 29.91 0.0
30 20:15 SE 13 8.00 Fair CLR 84.9 79.2 83% 98 29.9 0.0
30 19:55 SE 14 9.00 Fair CLR 86 78.8 79% 99 29.9 0.0
30 19:35 SE 14 9.00 Fair CLR 86.5 78.3 76% 100 29.9 0.0
30 19:15 SE 13 9.00 Fair CLR 87.6 78.4 74% 102 29.9 0.0
30 18:55 SE 13 9.00 Fair CLR 89.4 77.7 96.1 89.4 69% 103 29.9 0.0
30 18:35 S 16 10.00 Fair CLR 90 77 66% 103 29.9 0.0
30 18:15 SE 15 10.00 Fair CLR 90.9 77 64% 104 29.9 0.0
30 17:55 SE 15 10.00 Fair CLR 92.3 76.8 61% 106 29.9 0.0
30 17:35 S 14 10.00 A Few Clouds FEW038 92.5 76.8 60% 106 29.9 0.0
30 17:15 SE 14 G 21 10.00 A Few Clouds FEW038 93.2 79 63% 111 29.9 0.0
30 16:55 SE 13 10.00 A Few Clouds FEW041 93.2 76.3 58% 106 29.9 0.0
30 16:35 SE 12 G 20 10.00 Fair CLR 93.6 76.8 58% 108 29.91 0.0
30 16:15 SE 13 10.00 Fair CLR 94.8 77.2 57% 110 29.92 0.0
30 15:55 SE 12 G 20 10.00 Partly Cloudy FEW041 SCT050 93.9 77.4 59% 109 29.92 0.0
30 15:35 SE 14 10.00 Partly Cloudy FEW041 SCT050 93.9 78.3 61% 110 29.92 0.0
30 15:15 SE 12 10.00 A Few Clouds FEW340 93.9 76.3 57% 107 29.94 0.0
30 14:55 SE 15 10.00 A Few Clouds FEW370 93.4 79.2 63% 111 29.95 0.0
30 14:35 SE 17 10.00 Fair CLR 94.5 79 61% 112 29.95 0.0
30 14:15 E 16 10.00 Fair CLR 93.6 79.3 63% 112 29.96 0.0
30 13:55 E 15 10.00 Fair CLR 93.6 79.3 63% 112 29.97 0.0
30 13:35 E 13 10.00 Fair CLR 93.9 79.3 63% 112 29.97 0.0
30 13:15 SE 14 G 21 10.00 Fair CLR 93.6 79.3 63% 112 29.98 0.0
30 12:55 SE 14 10.00 Fair CLR 94.1 79.5 94.3 74.3 63% 113 29.99 0.0
30 12:35 SE 12 10.00 Fair CLR 94.3 79.3 62% 113 29.99 0.0
30 12:15 SE 12 G 17 10.00 Partly Cloudy FEW039 SCT048 SCT060 93.4 78.3 62% 110 29.99 0.0
30 11:55 Vrbl 7 10.00 Partly Cloudy SCT042 SCT060 90.9 77.7 65% 105 30 0.0
30 11:35 S 6 9.00 Partly Cloudy SCT038 92.3 78.4 64% 108 30 0.0
30 11:15 Vrbl 3 9.00 Mostly Cloudy BKN037 90.3 76.8 65% 103 30 0.0
30 10:55 Vrbl 3 10.00 Overcast BKN031 OVC041 90.1 78.1 68% 105 30 0.0
30 10:35 Calm 10.00 Overcast BKN032 OVC040 90.3 78.3 68% 105 30.01 0.0
30 10:15 Vrbl 3 10.00 Partly Cloudy SCT029 SCT041 88.9 78.4 71% 103 30.01 0.0
30 09:55 S 6 10.00 A Few Clouds FEW029 86.7 79.3 79% 101 30 0.0
30 09:35 Calm 10.00 A Few Clouds FEW020 85.8 79.9 83% 101 30 0.0
30 09:15 Vrbl 3 10.00 Partly Cloudy SCT020 86.2 80.1 82% 101 30 0.0
30 08:55 Calm 8.00 A Few Clouds FEW021 84.6 79.7 85% 98 30 0.0
30 08:35 Calm 9.00 Fair CLR 83.3 79.7 89% 95 29.99 0.0
30 07:55 Calm 6.00 Fog/Mist CLR 77.2 76.3 97% 78 29.98 0.0
30 07:35 Calm 6.00 Fog/Mist CLR 75.9 74.7 96% 75 29.97 0.0
30 07:15 NE 3 6.00 Fog/Mist CLR 75.2 74.3 97% 73 29.97 0.0
30 06:55 Calm 7.00 Fair CLR 75.7 75.7 78.6 75.4 100% 74 29.96 0.0
30 06:35 Calm 6.00 Fog/Mist CLR 75.9 75.9 100% 75 29.96 0.0
30 06:15 Calm 6.00 Fog/Mist CLR 75.6 75.6 100% 74 29.97 0.0
30 05:55 Calm 10.00 Fair CLR 77.2 77.2 100% 78 29.96 0.0
30 05:35 Calm 9.00 Fair CLR 77.7 77.5 99% 80 29.96 0.0
30 05:15 S 3 10.00 Fair CLR 78.1 78.1 100% 81 29.96 0.0
30 04:55 S 3 10.00 Fair CLR 77.9 77.9 100% 80 29.96 0.0
30 04:35 S 3 10.00 Fair CLR 78.1 78.1 100% 81 29.96 0.0
30 04:15 SE 5 10.00 Fair CLR 77.5 77.2 99% 79 29.96 0.0
30 03:55 SE 5 10.00 Fair CLR 77 77 100% 78 29.96 0.0
30 03:35 S 5 10.00 Fair CLR 77 77 100% 78 29.96 0.0
30 03:15 S 5 10.00 Fair CLR 77.2 77.2 100% 78 29.96 0.0
30 02:55 S 5 10.00 Fair CLR 77.4 77.4 100% 79 29.96 0.0
30 02:35 S 6 10.00 Fair CLR 76.8 76.5 99% 77 29.97 0.0
30 02:15 S 6 10.00 Fair CLR 76.6 76.3 99% 77 29.97 0.0
30 01:55 S 5 10.00 Fair CLR 77.7 77.4 99% 80 29.97 0.0
30 01:35 S 5 10.00 Fair CLR 77.2 76.8 99% 78 29.98 0.0
30 01:15 S 3 10.00 Fair CLR 77.9 77.2 98% 80 29.98 0.0
30 00:55 S 6 10.00 Fair CLR 79 77.7 87.8 78.4 96% 83 29.98 0.0
30 00:35 S 6 10.00 Fair CLR 78.8 77.9 97% 83 29.98 0.0
30 00:15 S 5 10.00 Fair CLR 78.8 77.9 97% 83 29.99 0.0
29 23:55 S 3 10.00 Fair CLR 79.2 78.3 97% 84 29.99 0.0
29 23:35 SE 3 10.00 Fair CLR 79.2 78.3 97% 84 29.99 0.0
29 23:15 S 5 10.00 Fair CLR 78.8 77.9 97% 83 29.99 0.0
29 22:55 SE 5 10.00 Fair CLR 79.5 77.7 94% 85 29.98 0.0
29 22:35 S 5 10.00 Fair CLR 79.7 78.1 95% 85 29.98 0.0
29 22:15 S 5 10.00 Fair CLR 80.1 77.5 92% 86 29.98 0.0
29 21:55 S 3 10.00 Fair CLR 80.6 78.1 92% 88 29.97 0.0
29 21:35 S 5 10.00 Fair CLR 81 78.1 91% 89 29.97 0.0
29 21:15 S 6 10.00 Fair CLR 81.1 77.7 89% 89 29.96 0.0
29 20:55 S 5 10.00 Fair CLR 81.9 77.7 87% 90 29.95 0.0
29 20:35 SE 6 10.00 Fair CLR 82.6 77.7 85% 92 29.95 0.0
29 20:15 SE 7 10.00 Fair CLR 83.8 77.7 82% 94 29.94 0.0
29 19:55 S 8 10.00 Fair CLR 84.9 77.5 79% 96 29.94 0.0
29 19:35 S 12 10.00 Fair CLR 85.8 77 75% 97 29.94 0.0
29 19:15 SE 12 10.00 Fair CLR 87.1 77 72% 99 29.94 0.0
29 18:55 SE 14 10.00 Fair CLR 88.7 76.5 95 88.7 67% 101 29.94 0.0
29 18:35 SE 16 10.00 Fair CLR 89.8 76.5 65% 102 29.94 0.0
29 18:15 SE 15 10.00 Fair CLR 90.5 75.7 62% 102 29.94 0.0
29 17:55 SE 15 10.00 Fair CLR 91.4 76.6 62% 104 29.94 0.0
29 17:35 SE 16 G 21 10.00 Fair CLR 91.8 77.4 63% 106 29.94 0.0
29 17:15 S 14 10.00 Fair CLR 92.7 76.8 60% 106 29.94 0.0
29 16:35 SE 15 G 21 10.00 A Few Clouds FEW043 92.7 75.7 58% 105 29.95 0.0
29 16:15 SE 14 10.00 A Few Clouds FEW046 93.6 76.6 58% 107 29.95 0.0
29 15:55 SE 16 10.00 A Few Clouds FEW042 94.6 77.4 57% 110 29.96 0.0
29 15:35 SE 16 10.00 A Few Clouds FEW041 94.5 77.7 58% 110 29.97 0.0
29 15:15 SE 16 10.00 A Few Clouds FEW037 93 79 64% 110 29.98 0.0
29 14:55 E 15 G 21 10.00 A Few Clouds FEW034 93.7 79.9 64% 113 29.99 0.0
29 14:35 SE 15 10.00 Fair CLR 93.2 79.9 65% 112 29.99 0.0
29 14:15 SE 14 0.00 Fair CLR 93.6 79.7 64% 112 30 0.0
29 13:55 SE 17 10.00 Fair CLR 93.2 78.6 63% 110 30 0.0
29 13:35 E 16 10.00 Fair CLR 93.6 78.3 61% 110 30.01 0.0
29 13:15 SE 13 10.00 Fair CLR 93.4 78.6 62% 110 30.01 0.0
29 12:55 SE 10 10.00 Partly Cloudy FEW038 SCT048 93.2 78.8 93.6 77.5 63% 110 30.02 0.0
29 12:35 SE 12 10.00 Mostly Cloudy BKN037 BKN047 90.3 78.1 67% 105 30.03 0.0
29 12:15 E 6 10.00 Partly Cloudy SCT036 SCT046 92.5 79.2 65% 110 30.03 0.0
29 11:55 S 9 10.00 Mostly Cloudy BKN034 BKN043 93.4 78.1 61% 109 30.04 0.0
29 11:35 E 7 10.00 Mostly Cloudy FEW030 BKN038 90.5 77.4 65% 104 30.04 0.0
29 11:15 SE 8 10.00 Overcast BKN029 BKN035 OVC045 89.6 79.2 71% 106 30.04 0.0
29 10:55 S 7 10.00 Overcast SCT025 BKN032 BKN042 BKN049 OVC070 88.2 80.4 78% 105 30.05 0.0
29 10:35 S 5 10.00 Overcast SCT022 BKN027 BKN033 BKN047 OVC060 87.4 80.6 80% 105 30.04 0.0
29 10:15 SW 5 10.00 Overcast OVC020 88.7 80.1 76% 106 30.04 0.0
29 09:55 Calm 10.00 Overcast OVC016 86 81.3 86% 103 30.04 0.0
29 09:35 E 3 10.00 Mostly Cloudy BKN015 86.7 81.7 85% 105 30.04 0.0
29 09:15 Calm 10.00 Fair CLR 85.5 81.5 88% 102 30.03 0.0
29 08:55 NE 3 10.00 Fair CLR 83.8 81 91% 98 30.03 0.0
29 08:35 Calm 9.00 Fair CLR 82.6 80.8 94% 95 30.03 0.0
29 08:15 NE 6 10.00 Fair CLR 80.2 79.9 99% 88 30.02 0.0
29 07:55 N 5 9.00 A Few Clouds FEW018 78.8 78.8 100% 83 30.02 0.0
29 07:35 NE 5 9.00 Partly Cloudy SCT018 78.4 78.4 100% 82 30.01 0.0
29 07:15 N 5 9.00 Partly Cloudy SCT020 77.7 77.7 100% 80 30.01 0.0
29 06:55 N 5 10.00 Fair CLR 77.7 77.7 80.1 77.2 100% 80 30.01 0.0
29 06:35 N 3 10.00 Fair CLR 78.8 78.6 99% 83 30.01 0.0
29 06:15 Calm 10.00 Partly Cloudy SCT017 79.3 79 99% 85 30.01 0.0
29 05:55 N 3 10.00 Overcast OVC017 79.5 79.2 99% 85 30.01 0.0
29 05:35 N 5 10.00 Overcast OVC017 79.5 79 98% 85 30 0.0
29 05:15 N 3 10.00 Overcast BKN017 OVC024 79.3 79.3 100% 85 30 0.0
29 04:55 Calm 10.00 Mostly Cloudy BKN017 79 79 100% 84 30 0.0
29 04:35 Calm 9.00 Partly Cloudy SCT019 SCT026 78.6 78.6 100% 83 30 0.0
29 04:15 N 5 9.00 Partly Cloudy SCT019 77.4 77.4 100% 79 29.99 0.0
29 03:55 Calm 10.00 A Few Clouds FEW021 77.9 77.9 100% 80 29.98 0.0
29 03:35 Calm 10.00 Fair CLR 77.9 77.5 99% 80 29.98 0.0
29 03:15 Calm 9.00 Fair CLR 77.9 77.4 98% 80 29.98 0.0
29 02:55 Calm 10.00 Fair CLR 79 79 100% 84 29.98 0.0
29 02:35 SE 3 10.00 Fair CLR 79.7 79.3 99% 86 29.98 0.0
29 02:15 Calm 10.00 Fair CLR 78.8 78.8 100% 83 29.98 0.0
29 01:55 SE 5 9.00 Fair CLR 78.8 78.8 100% 83 29.98 0.0
29 01:35 SE 5 10.00 Fair CLR 79.7 79.3 99% 86 29.98 0.0
29 01:15 Calm 10.00 Fair CLR 78.3 76.6 95% 81 29.98 0.0
29 00:55 Calm 10.00 Fair CLR 79.2 79.2 87.3 79.2 100% 84 29.98 0.0
29 00:35 Calm 10.00 Fair CLR 79.5 79.5 100% 86 29.98 0.0
29 00:15 Calm 10.00 Fair CLR 79.5 79 98% 85 29.98 0.0
28 23:55 Calm 10.00 Fair CLR 80.8 79.9 97% 89 29.99 0.0
28 23:35 Calm 10.00 Fair CLR 81.3 80.2 97% 91 30 0.0
28 23:15 S 6 10.00 Fair CLR 81.3 80.4 97% 91 29.99 0.0
28 22:55 SE 6 10.00 Fair CLR 81.5 80.2 96% 92 30 0.0
28 22:35 SE 5 10.00 Fair CLR 81.3 79.9 95% 91 29.99 0.0
28 22:15 SE 7 10.00 Fair CLR 81 79.5 95% 90 29.98 0.0
28 21:55 S 7 10.00 Partly Cloudy FEW190 SCT220 81.5 79.3 93% 91 29.96 0.0
28 21:35 S 7 10.00 Overcast FEW190 OVC220 81.9 79.3 92% 92 29.96 0.0
28 21:15 S 6 10.00 Partly Cloudy SCT230 82.4 80.1 93% 94 29.96 0.0
28 20:55 S 6 10.00 Fair CLR 83.3 79.9 89% 95 29.97 0.0
28 20:35 SE 7 10.00 Fair CLR 83.7 79.7 88% 96 29.97 0.0
28 20:15 S 6 10.00 Mostly Cloudy BKN160 84.2 79.3 85% 97 29.96 0.0
28 19:55 SE 10 10.00 Mostly Cloudy BKN160 BKN200 85.6 79.5 82% 100 29.96 0.0
28 19:35 SE 9 10.00 Mostly Cloudy SCT160 BKN200 86.5 78.8 78% 100 29.96 0.0
28 19:15 SE 12 10.00 Partly Cloudy SCT160 87.1 79.3 78% 102 29.95 0.0
28 18:55 SE 9 9.00 Partly Cloudy FEW200 SCT240 87.3 80.2 96.8 83.5 80% 104 29.95 0.0
28 18:35 SE 13 9.00 Mostly Cloudy SCT210 BKN240 87.1 80.4 81% 104 29.95 0.0
28 18:15 SE 14 10.00 Mostly Cloudy FEW220 SCT250 BKN370 87.3 79.9 79% 103 29.94 0.0
28 17:55 S 7 8.00 A Few Clouds FEW230 86.9 81.5 84% 105 29.94 0.0
28 17:35 S 5 8.00 Mostly Cloudy FEW180 BKN230 85.6 80.4 84% 101 29.94 0.0
28 17:15 S 3 7.00 A Few Clouds FEW070 85.1 80.4 86% 100 29.94 0.0
28 16:55 Calm 6.00 Light Rain FEW035 SCT065 BKN080 BKN120 OVC150 84.6 75.6 74% 93 29.95 0.0
28 16:35 W 6 9.00 Light Rain SCT130 BKN160 85.5 73.8 68% 93 29.95 0.0
28 16:15 N 3 9.00 Partly Cloudy FEW130 SCT160 84 73.8 71% 91 29.94 0.0
28 15:55 W 9 9.00 Mostly Cloudy SCT160 BKN190 88 78.3 73% 102 29.95 0.0
28 15:35 E 7 9.00 Mostly Cloudy SCT190 BKN220 88.7 79.2 73% 104 29.95 0.0
28 15:15 E 13 10.00 Overcast BKN170 OVC240 91.6 76.5 61% 104 29.96 0.0
28 14:55 SE 16 9.00 A Few Clouds FEW170 92.8 77.7 61% 108 29.98 0.0
28 14:35 SE 14 10.00 A Few Clouds FEW085 95.4 77.5 56% 111 29.99 0.0
28 14:15 SE 10 10.00 Partly Cloudy SCT085 95.5 77.2 56% 111 29.99 0.0
28 13:35 SE 9 10.00 A Few Clouds FEW060 94.5 76.8 57% 109 30 0.0
28 13:15 S 8 G 17 10.00 A Few Clouds FEW040 95.7 77 55% 111 30 0.0
28 12:55 SE 13 10.00 Mostly Cloudy SCT036 BKN045 BKN080 90.7 79.5 95.5 76.8 70% 108 30.01 0.0
28 12:35 SE 8 10.00 Mostly Cloudy BKN046 BKN060 BKN085 93.7 76.1 57% 107 30.01 0.0
28 12:15 Calm 10.00 Mostly Cloudy BKN044 BKN055 BKN100 93.7 76.6 58% 108 30.02 0.0
28 11:55 Vrbl 3 10.00 Partly Cloudy SCT045 93.2 76.5 58% 107 30.02 0.0
28 11:35 SW 6 10.00 Partly Cloudy SCT038 93 76.8 59% 107 30.02 0.0
28 11:15 Vrbl 7 10.00 Mostly Cloudy BKN037 92.3 77 61% 106 30.02 0.0
28 10:55 Vrbl 6 10.00 Partly Cloudy SCT033 90.7 78.8 68% 107 30.02 0.0
28 10:35 S 8 10.00 A Few Clouds FEW026 89.1 79.2 73% 105 30.02 0.0
28 10:15 S 7 10.00 Partly Cloudy SCT025 89.2 79.5 73% 106 30.02 0.0
28 09:55 Vrbl 7 9.00 A Few Clouds FEW021 87.8 79.9 77% 104 30.02 0.0
28 09:35 SW 7 10.00 Fair CLR 87.4 79.9 78% 103 30.01 0.0
28 09:15 SW 7 9.00 Fair CLR 86.5 80.6 83% 103 30.01 0.0
28 08:55 SW 5 8.00 Fair CLR 84.4 80.8 89% 99 30.01 0.0
28 08:35 Calm 8.00 Fair CLR 83.3 80.8 92% 97 30.01 0.0
28 08:15 Calm 8.00 Fair CLR 81.7 80.6 97% 92 30 0.0
28 07:55 Calm 8.00 Fair CLR 79.7 78.4 96% 86 29.99 0.0
28 07:35 Calm 9.00 Fair CLR 77.9 76.1 94% 80 29.99 0.0
28 07:15 Calm 9.00 Fair CLR 77.7 75 91% 80 29.98 0.0
28 06:55 Calm 10.00 Fair CLR 77.4 74.1 80.8 76.8 90% 79 29.98 0.0
28 06:35 N 3 10.00 Fair CLR 78.3 77 96% 81 29.98 0.0
28 06:15 Calm 10.00 A Few Clouds FEW200 77.5 76.8 98% 79 29.97 0.0
28 05:55 Calm 9.00 A Few Clouds FEW340 77.9 77.4 98% 80 29.96 0.0
28 05:35 Calm 10.00 A Few Clouds FEW220 77 75.7 96% 78 29.96 0.0
28 05:15 Calm 9.00 Mostly Cloudy BKN210 77.9 77.4 98% 80 29.96 0.0
28 04:55 Calm 9.00 Mostly Cloudy BKN210 78.1 77.4 98% 81 29.96 0.0
28 04:35 Calm 10.00 Mostly Cloudy BKN210 77.9 76.8 97% 80 29.97 0.0
28 04:15 Calm 10.00 Mostly Cloudy BKN210 78.3 76.8 95% 81 29.96 0.0
28 03:55 Calm 10.00 Partly Cloudy SCT022 79.5 78.4 97% 85 29.96 0.0
28 03:35 Calm 10.00 Fair CLR 79.2 78.4 98% 84 29.96 0.0
28 03:15 Calm 10.00 Partly Cloudy SCT110 79.5 78.3 96% 85 29.96 0.0
28 02:55 Calm 10.00 Fair CLR 78.8 75.9 91% 83 29.96 0.0
28 02:35 Calm 10.00 Fair CLR 79.5 78.1 95% 85 29.96 0.0
28 02:15 Calm 10.00 Fair CLR 79.5 78.4 97% 85 29.96 0.0
Date Time (cdt) Wind (mph) Vis. (mi.) Weather Sky Cond. Air Dwpt Max. Min. Relative Humidity Wind Chill (°F) Heat Index (°F) altimeter (in) sea level (mb) 1 hr 3 hr 6 hr
6 hour
Temperature (ºF) Pressure Precipitation (in)